createdAt,value
2019-01-13T00:00:21.965Z,4.63
2019-01-13T00:02:48.041Z,4.64
2019-01-13T00:05:14.097Z,4.66
2019-01-13T00:07:40.522Z,4.66
2019-01-13T00:10:06.795Z,4.69
2019-01-13T00:12:35.647Z,4.71
2019-01-13T00:15:02.922Z,4.72
2019-01-13T00:17:28.880Z,4.82
2019-01-13T00:19:54.858Z,4.88
2019-01-13T00:22:20.880Z,4.87
2019-01-13T00:24:46.864Z,4.87
2019-01-13T00:27:13.120Z,4.86
2019-01-13T00:29:42.098Z,4.85
2019-01-13T00:32:08.136Z,4.84
2019-01-13T00:34:34.290Z,4.83
2019-01-13T00:37:00.319Z,4.79
2019-01-13T00:39:26.266Z,4.78
2019-01-13T00:41:52.219Z,4.76
2019-01-13T00:44:18.916Z,4.75
2019-01-13T00:46:47.067Z,4.73
2019-01-13T00:49:14.425Z,4.68
2019-01-13T00:51:40.404Z,4.67
2019-01-13T00:54:06.384Z,4.71
2019-01-13T00:56:32.343Z,4.72
2019-01-13T00:58:58.393Z,4.73
2019-01-13T01:01:24.372Z,4.70
2019-01-13T01:03:50.560Z,4.67
2019-01-13T01:06:16.660Z,4.66
2019-01-13T01:08:43.117Z,4.65
2019-01-13T01:11:09.082Z,4.67
2019-01-13T01:13:35.270Z,4.67
2019-01-13T01:16:01.222Z,4.61
2019-01-13T01:18:27.321Z,4.66
2019-01-13T01:20:53.370Z,4.80
2019-01-13T01:23:19.547Z,4.84
2019-01-13T01:25:46.423Z,4.86
2019-01-13T01:28:12.445Z,4.90
2019-01-13T01:30:38.424Z,4.93
2019-01-13T01:33:04.681Z,4.93
2019-01-13T01:35:32.104Z,4.93
2019-01-13T01:37:58.123Z,4.93
2019-01-13T01:40:24.376Z,4.93
2019-01-13T01:42:50.397Z,4.94
2019-01-13T01:45:18.275Z,4.96
2019-01-13T01:47:44.331Z,4.99
2019-01-13T01:50:11.725Z,5.01
2019-01-13T01:52:37.991Z,5.01
2019-01-13T01:55:06.855Z,5.01
2019-01-13T01:57:32.854Z,5.01
2019-01-13T01:59:58.838Z,4.97
2019-01-13T02:02:24.813Z,4.95
2019-01-13T02:04:51.227Z,4.94
2019-01-13T02:07:18.789Z,4.92
2019-01-13T02:09:44.755Z,4.89
2019-01-13T02:12:11.072Z,4.84
2019-01-13T02:14:37.052Z,4.80
2019-01-13T02:17:03.012Z,4.80
2019-01-13T02:19:30.907Z,4.81
2019-01-13T02:21:56.947Z,4.81
2019-01-13T02:24:23.209Z,4.83
2019-01-13T02:26:50.326Z,4.85
2019-01-13T02:29:16.283Z,4.87
2019-01-13T02:31:42.242Z,4.87
2019-01-13T02:34:08.346Z,4.87
2019-01-13T02:36:34.925Z,4.85
2019-01-13T02:39:00.902Z,4.83
2019-01-13T02:41:27.405Z,4.81
2019-01-13T02:43:53.377Z,4.77
2019-01-13T02:46:19.329Z,4.77
2019-01-13T02:48:45.972Z,4.79
2019-01-13T02:51:12.071Z,4.78
2019-01-13T02:53:40.466Z,4.81
2019-01-13T02:56:06.505Z,4.84
2019-01-13T02:58:33.150Z,4.83
2019-01-13T03:01:01.063Z,4.84
2019-01-13T03:03:27.255Z,4.84
2019-01-13T03:05:53.217Z,4.83
2019-01-13T03:08:19.187Z,4.85
2019-01-13T03:10:45.217Z,4.85
2019-01-13T03:13:11.240Z,4.87
2019-01-13T03:15:37.195Z,4.86
2019-01-13T03:18:03.200Z,4.84
2019-01-13T03:20:29.151Z,4.83
2019-01-13T03:22:55.971Z,4.83
2019-01-13T03:25:23.063Z,4.83
2019-01-13T03:27:49.124Z,4.85
2019-01-13T03:30:20.000Z,4.87
2019-01-13T03:32:46.027Z,4.91
2019-01-13T03:35:12.811Z,4.88
2019-01-13T03:37:38.829Z,4.87
2019-01-13T03:40:08.641Z,4.87
2019-01-13T03:42:35.092Z,4.87
2019-01-13T03:45:01.049Z,4.89
2019-01-13T03:47:27.067Z,4.92
2019-01-13T03:49:53.017Z,4.93
2019-01-13T03:52:18.984Z,4.92
2019-01-13T03:54:45.103Z,4.88
2019-01-13T03:57:11.406Z,4.85
2019-01-13T03:59:37.655Z,4.82
2019-01-13T04:02:03.851Z,4.78
2019-01-13T04:04:29.816Z,4.72
2019-01-13T04:06:55.766Z,4.72
2019-01-13T04:09:21.764Z,4.71
2019-01-13T04:11:48.748Z,4.72
2019-01-13T04:14:16.704Z,4.71
2019-01-13T04:16:42.939Z,4.70
2019-01-13T04:19:08.898Z,4.68
2019-01-13T04:21:35.507Z,4.65
2019-01-13T04:24:01.490Z,4.64
2019-01-13T04:26:27.514Z,4.59
2019-01-13T04:28:53.584Z,4.56
2019-01-13T04:31:26.330Z,4.57
2019-01-13T04:33:47.439Z,4.58
2019-01-13T04:36:14.315Z,4.57
2019-01-13T04:38:40.348Z,4.61
2019-01-13T04:41:08.224Z,4.62
2019-01-13T04:43:34.156Z,4.65
2019-01-13T04:46:00.486Z,4.64
2019-01-13T04:48:26.433Z,4.64
2019-01-13T04:50:53.215Z,4.66
2019-01-13T04:53:19.470Z,4.67
2019-01-13T04:55:45.405Z,4.67
2019-01-13T04:58:11.378Z,4.68
2019-01-13T05:00:37.415Z,4.69
2019-01-13T05:03:03.860Z,4.69
2019-01-13T05:05:30.107Z,4.68
2019-01-13T05:07:58.726Z,4.67
2019-01-13T05:10:24.671Z,4.66
2019-01-13T05:12:51.119Z,4.68
2019-01-13T05:15:17.428Z,4.68
2019-01-13T05:17:43.694Z,4.68
2019-01-13T05:20:11.836Z,4.71
2019-01-13T05:22:38.756Z,4.73
2019-01-13T05:25:05.834Z,4.80
2019-01-13T05:27:32.848Z,4.84
2019-01-13T05:29:58.822Z,4.87
2019-01-13T05:32:25.335Z,4.87
2019-01-13T05:34:51.280Z,4.84
2019-01-13T05:37:18.271Z,4.85
2019-01-13T05:39:45.188Z,4.80
2019-01-13T05:42:12.049Z,4.84
2019-01-13T05:44:38.044Z,4.83
2019-01-13T05:47:04.071Z,4.83
2019-01-13T05:49:30.053Z,4.86
2019-01-13T05:51:56.052Z,4.85
2019-01-13T05:54:21.999Z,4.87
2019-01-13T05:56:47.932Z,4.87
2019-01-13T05:59:13.931Z,4.88
2019-01-13T06:01:39.881Z,4.88
2019-01-13T06:04:05.828Z,4.85
2019-01-13T06:06:32.156Z,4.82
2019-01-13T06:08:58.088Z,4.80
2019-01-13T06:11:24.723Z,4.82
2019-01-13T06:13:50.701Z,4.82
2019-01-13T06:16:16.681Z,4.81
2019-01-13T06:18:42.649Z,4.83
2019-01-13T06:21:08.662Z,4.83
2019-01-13T06:23:35.822Z,4.82
2019-01-13T06:26:01.798Z,4.83
2019-01-13T06:28:27.983Z,4.83
2019-01-13T06:30:53.924Z,4.84
2019-01-13T06:33:19.870Z,4.88
2019-01-13T06:35:45.846Z,4.87
2019-01-13T06:38:11.824Z,4.88
2019-01-13T06:40:37.890Z,4.90
2019-01-13T06:43:03.885Z,4.92
2019-01-13T06:45:29.836Z,4.93
2019-01-13T06:47:57.116Z,4.92
2019-01-13T06:50:23.267Z,4.91
2019-01-13T06:52:49.528Z,4.91
2019-01-13T06:55:16.565Z,4.93
2019-01-13T06:57:42.875Z,4.96
2019-01-13T07:00:18.240Z,5.00
2019-01-13T07:02:44.253Z,5.01
2019-01-13T07:05:10.490Z,5.02
2019-01-13T07:07:37.580Z,5.02
2019-01-13T07:10:09.225Z,5.02
2019-01-13T07:12:35.242Z,5.01
2019-01-13T07:15:01.198Z,5.01
2019-01-13T07:17:27.439Z,5.01
2019-01-13T07:19:53.465Z,5.10
2019-01-13T07:22:20.685Z,5.21
2019-01-13T07:24:46.637Z,5.17
2019-01-13T07:27:12.616Z,5.16
2019-01-13T07:29:38.560Z,5.18
2019-01-13T07:32:10.772Z,5.22
2019-01-13T07:34:32.872Z,5.26
2019-01-13T07:36:58.813Z,5.29
2019-01-13T07:39:25.072Z,5.36
2019-01-13T07:41:51.186Z,5.41
2019-01-13T07:44:17.598Z,5.39
2019-01-13T07:46:43.683Z,5.36
2019-01-13T07:49:10.060Z,5.34
2019-01-13T07:51:36.003Z,5.34
2019-01-13T07:54:01.940Z,5.32
2019-01-13T07:56:28.720Z,5.33
2019-01-13T07:58:55.210Z,5.31
2019-01-13T08:01:21.257Z,5.31
2019-01-13T08:03:47.339Z,5.28
2019-01-13T08:06:13.276Z,5.27
2019-01-13T08:08:39.226Z,5.24
2019-01-13T08:11:05.216Z,5.25
2019-01-13T08:13:31.169Z,5.23
2019-01-13T08:15:57.129Z,5.22
2019-01-13T08:18:23.123Z,5.23
2019-01-13T08:20:49.077Z,5.23
2019-01-13T08:23:15.021Z,5.25
2019-01-13T08:25:41.011Z,5.24
2019-01-13T08:28:06.974Z,5.25
2019-01-13T08:30:33.024Z,5.32
2019-01-13T08:32:59.109Z,5.33
2019-01-13T08:35:25.163Z,5.35
2019-01-13T08:37:51.418Z,5.32
2019-01-13T08:40:19.074Z,5.26
2019-01-13T08:42:46.576Z,5.19
2019-01-13T08:45:12.857Z,5.21
2019-01-13T08:47:39.279Z,5.24
2019-01-13T08:50:09.048Z,5.24
2019-01-13T08:52:35.217Z,5.30
2019-01-13T08:55:01.290Z,5.33
2019-01-13T08:57:27.520Z,5.33
2019-01-13T08:59:53.467Z,5.34
2019-01-13T09:02:19.584Z,5.43
2019-01-13T09:04:45.540Z,5.53
2019-01-13T09:07:11.478Z,5.56
2019-01-13T09:09:37.564Z,5.50
2019-01-13T09:12:03.728Z,5.47
2019-01-13T09:14:30.173Z,5.47
2019-01-13T09:16:56.293Z,5.51
2019-01-13T09:19:24.170Z,5.56
2019-01-13T09:21:51.129Z,5.59
2019-01-13T09:24:17.135Z,5.66
2019-01-13T09:26:43.090Z,5.74
2019-01-13T09:29:09.035Z,5.80
2019-01-13T09:31:37.168Z,5.81
2019-01-13T09:34:04.019Z,5.83
2019-01-13T09:36:30.458Z,5.95
2019-01-13T09:38:57.156Z,6.04
2019-01-13T09:41:23.102Z,6.07
2019-01-13T09:43:49.757Z,6.11
2019-01-13T09:46:15.801Z,6.12
2019-01-13T09:48:42.227Z,6.19
2019-01-13T09:51:08.599Z,6.20
2019-01-13T09:53:34.578Z,6.10
2019-01-13T09:56:01.032Z,5.98
2019-01-13T09:58:27.077Z,5.83
2019-01-13T10:00:53.364Z,5.83
2019-01-13T10:03:19.526Z,5.79
2019-01-13T10:05:45.578Z,5.73
2019-01-13T10:08:11.947Z,5.71
2019-01-13T10:10:37.995Z,5.70
2019-01-13T10:13:05.849Z,5.72
2019-01-13T10:15:32.244Z,5.68
2019-01-13T10:17:58.403Z,5.70
2019-01-13T10:20:24.390Z,5.79
2019-01-13T10:22:50.965Z,5.87
2019-01-13T10:25:17.003Z,6.03
2019-01-13T10:27:43.019Z,6.05
2019-01-13T10:30:21.907Z,6.03
2019-01-13T10:32:54.641Z,6.03
2019-01-13T10:35:16.366Z,5.99
2019-01-13T10:37:42.345Z,5.98
2019-01-13T10:40:11.993Z,5.95
2019-01-13T10:42:41.437Z,5.97
2019-01-13T10:45:10.553Z,5.98
2019-01-13T10:47:36.484Z,5.98
2019-01-13T10:50:06.160Z,6.03
2019-01-13T10:52:32.212Z,6.09
2019-01-13T10:54:58.302Z,6.02
2019-01-13T10:57:24.256Z,5.94
2019-01-13T10:59:50.333Z,5.85
2019-01-13T11:02:16.393Z,5.81
2019-01-13T11:04:43.269Z,5.80
2019-01-13T11:07:09.320Z,5.82
2019-01-13T11:09:35.266Z,5.85
2019-01-13T11:12:01.209Z,5.89
2019-01-13T11:14:27.204Z,5.93
2019-01-13T11:16:53.161Z,5.98
2019-01-13T11:19:19.317Z,5.94
2019-01-13T11:21:45.310Z,5.94
2019-01-13T11:24:11.267Z,5.97
2019-01-13T11:26:37.229Z,5.99
2019-01-13T11:29:03.217Z,6.02
2019-01-13T11:31:29.501Z,6.08
2019-01-13T11:33:55.440Z,6.14
2019-01-13T11:36:21.458Z,6.17
2019-01-13T11:38:47.691Z,6.22
2019-01-13T11:41:13.630Z,6.19
2019-01-13T11:43:39.607Z,6.23
2019-01-13T11:46:06.630Z,6.23
2019-01-13T11:48:33.082Z,6.27
2019-01-13T11:50:59.066Z,6.43
2019-01-13T11:53:25.812Z,6.54
2019-01-13T11:55:51.747Z,6.54
2019-01-13T11:58:18.775Z,6.48
2019-01-13T12:00:44.798Z,6.44
2019-01-13T12:03:16.823Z,6.35
2019-01-13T12:05:39.982Z,6.27
2019-01-13T12:08:06.340Z,6.20
2019-01-13T12:10:32.287Z,6.16
2019-01-13T12:13:02.839Z,6.13
2019-01-13T12:15:28.922Z,6.12
2019-01-13T12:17:54.858Z,6.09
2019-01-13T12:20:23.693Z,6.07
2019-01-13T12:22:49.835Z,6.06
2019-01-13T12:25:18.296Z,6.10
2019-01-13T12:27:44.776Z,6.10
2019-01-13T12:30:20.066Z,6.09
2019-01-13T12:32:46.055Z,6.10
2019-01-13T12:35:12.117Z,6.06
2019-01-13T12:37:38.672Z,6.08
2019-01-13T12:40:08.503Z,6.08
2019-01-13T12:42:36.207Z,6.06
2019-01-13T12:45:08.032Z,6.05
2019-01-13T12:47:34.975Z,6.04
2019-01-13T12:50:01.178Z,6.03
2019-01-13T12:52:27.166Z,6.01
2019-01-13T12:54:53.154Z,6.02
2019-01-13T12:57:19.131Z,6.01
2019-01-13T12:59:46.447Z,6.03
2019-01-13T13:02:12.659Z,6.02
2019-01-13T13:04:39.727Z,6.04
2019-01-13T13:07:08.591Z,6.02
2019-01-13T13:09:34.571Z,6.02
2019-01-13T13:12:02.982Z,6.03
2019-01-13T13:14:28.928Z,5.99
2019-01-13T13:16:54.930Z,5.99
2019-01-13T13:19:20.886Z,5.96
2019-01-13T13:21:47.155Z,5.96
2019-01-13T13:24:13.180Z,5.94
2019-01-13T13:26:40.329Z,5.94
2019-01-13T13:29:06.582Z,5.97
2019-01-13T13:31:32.582Z,6.02
2019-01-13T13:33:58.529Z,6.04
2019-01-13T13:36:25.993Z,6.04
2019-01-13T13:38:52.112Z,6.04
2019-01-13T13:41:18.772Z,6.02
2019-01-13T13:43:47.988Z,6.01
2019-01-13T13:46:14.018Z,6.02
2019-01-13T13:48:40.035Z,6.03
2019-01-13T13:51:06.178Z,6.03
2019-01-13T13:53:34.071Z,6.01
2019-01-13T13:56:00.006Z,5.99
2019-01-13T13:58:26.567Z,5.99
2019-01-13T14:00:52.575Z,5.99
2019-01-13T14:03:18.531Z,5.98
2019-01-13T14:05:44.475Z,5.99
2019-01-13T14:08:11.733Z,5.96
2019-01-13T14:10:37.780Z,5.94
2019-01-13T14:13:05.265Z,5.94
2019-01-13T14:15:31.255Z,5.92
2019-01-13T14:17:58.391Z,5.92
2019-01-13T14:20:24.440Z,5.88
2019-01-13T14:22:51.148Z,5.85
2019-01-13T14:25:17.198Z,5.83
2019-01-13T14:27:44.146Z,5.80
2019-01-13T14:30:14.751Z,5.77
2019-01-13T14:32:40.810Z,5.73
2019-01-13T14:35:06.965Z,5.71
2019-01-13T14:37:32.953Z,5.70
2019-01-13T14:39:59.066Z,5.69
2019-01-13T14:42:26.035Z,5.70
2019-01-13T14:44:52.034Z,5.67
2019-01-13T14:47:17.993Z,5.65
2019-01-13T14:49:44.919Z,5.63
2019-01-13T14:52:10.929Z,5.64
2019-01-13T14:54:37.165Z,5.62
2019-01-13T14:57:03.309Z,5.59
2019-01-13T14:59:29.285Z,5.57
2019-01-13T15:01:55.929Z,5.56
2019-01-13T15:04:21.885Z,5.56
2019-01-13T15:06:47.863Z,5.57
2019-01-13T15:09:13.849Z,5.56
2019-01-13T15:11:39.835Z,5.56
2019-01-13T15:14:05.908Z,5.57
2019-01-13T15:16:32.898Z,5.66
2019-01-13T15:19:00.224Z,5.79
2019-01-13T15:21:26.337Z,5.76
2019-01-13T15:23:52.492Z,5.71
2019-01-13T15:26:18.591Z,5.66
2019-01-13T15:28:44.608Z,5.62
2019-01-13T15:31:10.954Z,5.60
2019-01-13T15:33:36.919Z,5.61
2019-01-13T15:36:03.330Z,5.65
2019-01-13T15:38:29.276Z,5.63
2019-01-13T15:40:55.500Z,5.62
2019-01-13T15:43:21.928Z,5.56
2019-01-13T15:45:48.208Z,5.60
2019-01-13T15:48:14.158Z,5.60
2019-01-13T15:50:40.208Z,5.58
2019-01-13T15:53:06.162Z,5.56
2019-01-13T15:55:32.122Z,5.55
2019-01-13T15:57:58.197Z,5.55
2019-01-13T16:00:48.981Z,5.55
2019-01-13T16:03:14.980Z,5.54
2019-01-13T16:05:40.929Z,5.51
2019-01-13T16:08:07.143Z,5.52
2019-01-13T16:10:33.633Z,5.60
2019-01-13T16:12:59.649Z,5.60
2019-01-13T16:15:33.930Z,5.52
2019-01-13T16:17:55.097Z,5.46
2019-01-13T16:20:27.664Z,5.44
2019-01-13T16:22:54.052Z,5.41
2019-01-13T16:25:20.141Z,5.38
2019-01-13T16:27:46.102Z,5.38
2019-01-13T16:30:15.991Z,5.37
2019-01-13T16:32:41.978Z,5.36
2019-01-13T16:35:08.134Z,5.36
2019-01-13T16:37:34.482Z,5.34
2019-01-13T16:40:00.591Z,5.33
2019-01-13T16:42:26.575Z,5.33
2019-01-13T16:44:52.540Z,5.30
2019-01-13T16:47:18.526Z,5.31
2019-01-13T16:49:44.598Z,5.33
2019-01-13T16:52:11.670Z,5.34
2019-01-13T16:54:37.648Z,5.35
2019-01-13T16:57:03.596Z,5.36
2019-01-13T16:59:29.558Z,5.37
2019-01-13T17:01:55.586Z,5.38
2019-01-13T17:04:28.622Z,5.45
2019-01-13T17:06:49.401Z,5.47
2019-01-13T17:09:15.443Z,5.47
2019-01-13T17:11:42.237Z,5.51
2019-01-13T17:14:08.474Z,5.52
2019-01-13T17:16:34.461Z,5.55
2019-01-13T17:19:00.431Z,5.59
2019-01-13T17:21:26.389Z,5.63
2019-01-13T17:23:52.428Z,5.67
2019-01-13T17:26:18.515Z,5.70
2019-01-13T17:28:44.466Z,5.71
2019-01-13T17:31:10.991Z,5.71
2019-01-13T17:33:36.946Z,5.71
2019-01-13T17:36:03.030Z,5.72
2019-01-13T17:38:33.649Z,5.75
2019-01-13T17:40:59.958Z,5.78
2019-01-13T17:43:28.949Z,5.81
2019-01-13T17:45:54.987Z,5.82
2019-01-13T17:48:21.207Z,5.83
2019-01-13T17:50:47.177Z,5.85
2019-01-13T17:53:14.072Z,5.91
2019-01-13T17:55:40.221Z,6.00
2019-01-13T17:58:06.464Z,6.02
2019-01-13T18:00:36.891Z,6.01
2019-01-13T18:03:09.429Z,6.01
2019-01-13T18:05:35.389Z,5.99
2019-01-13T18:08:02.267Z,5.99
2019-01-13T18:10:29.051Z,6.02
2019-01-13T18:12:55.005Z,6.04
2019-01-13T18:15:21.172Z,6.02
2019-01-13T18:17:47.163Z,6.02
2019-01-13T18:20:20.866Z,6.02
2019-01-13T18:22:47.548Z,6.06
2019-01-13T18:25:13.729Z,6.04
2019-01-13T18:27:40.149Z,5.99
2019-01-13T18:30:18.330Z,6.00
2019-01-13T18:32:44.489Z,6.03
2019-01-13T18:35:13.470Z,6.06
2019-01-13T18:37:39.470Z,6.08
2019-01-13T18:40:13.757Z,6.08
2019-01-13T18:42:40.010Z,6.07
2019-01-13T18:45:08.011Z,6.08
2019-01-13T18:47:34.082Z,6.10
2019-01-13T18:50:00.100Z,6.11
2019-01-13T18:52:26.224Z,6.13
2019-01-13T18:54:52.248Z,6.15
2019-01-13T18:57:19.539Z,6.15
2019-01-13T18:59:46.986Z,6.15
2019-01-13T19:02:13.046Z,6.14
2019-01-13T19:04:39.394Z,6.12
2019-01-13T19:07:05.374Z,6.13
2019-01-13T19:09:31.331Z,6.10
2019-01-13T19:11:57.287Z,6.12
2019-01-13T19:14:28.393Z,6.15
2019-01-13T19:16:55.939Z,6.17
2019-01-13T19:19:21.890Z,6.18
2019-01-13T19:21:47.916Z,6.20
2019-01-13T19:24:14.092Z,6.24
2019-01-13T19:26:40.349Z,6.25
2019-01-13T19:29:06.352Z,6.27
2019-01-13T19:31:32.300Z,6.27
2019-01-13T19:33:58.420Z,6.26
2019-01-13T19:36:24.651Z,6.26
2019-01-13T19:38:50.614Z,6.32
2019-01-13T19:41:17.111Z,6.40
2019-01-13T19:43:43.104Z,6.40
2019-01-13T19:46:09.075Z,6.38
2019-01-13T19:48:35.049Z,6.39
2019-01-13T19:51:01.035Z,6.39
2019-01-13T19:53:26.995Z,6.38
2019-01-13T19:55:55.418Z,6.37
2019-01-13T19:58:22.823Z,6.37
2019-01-13T20:00:48.892Z,6.36
2019-01-13T20:03:15.757Z,6.38
2019-01-13T20:05:41.769Z,6.39
2019-01-13T20:08:08.190Z,6.39
2019-01-13T20:10:36.096Z,6.38
2019-01-13T20:13:02.121Z,6.38
2019-01-13T20:15:28.706Z,6.38
2019-01-13T20:17:54.963Z,6.37
2019-01-13T20:20:22.427Z,6.38
2019-01-13T20:22:48.826Z,6.40
2019-01-13T20:25:16.465Z,6.37
2019-01-13T20:27:42.864Z,6.35
2019-01-13T20:30:15.394Z,6.37
2019-01-13T20:32:41.658Z,6.42
2019-01-13T20:35:07.766Z,6.43
2019-01-13T20:37:33.711Z,6.42
2019-01-13T20:39:59.678Z,6.41
2019-01-13T20:42:25.905Z,6.48
2019-01-13T20:44:51.860Z,6.45
2019-01-13T20:47:19.725Z,6.43
2019-01-13T20:49:45.724Z,6.46
2019-01-13T20:52:11.675Z,6.51
2019-01-13T20:54:38.927Z,6.48
2019-01-13T20:57:05.918Z,6.49
2019-01-13T20:59:31.921Z,6.54
2019-01-13T21:01:59.003Z,6.56
2019-01-13T21:04:25.053Z,6.61
2019-01-13T21:06:51.962Z,6.62
2019-01-13T21:09:19.835Z,6.67
2019-01-13T21:11:45.999Z,6.71
2019-01-13T21:14:12.945Z,6.68
2019-01-13T21:16:38.907Z,6.64
2019-01-13T21:19:06.296Z,6.59
2019-01-13T21:21:32.598Z,6.53
2019-01-13T21:23:59.811Z,6.50
2019-01-13T21:26:25.888Z,6.49
2019-01-13T21:28:51.851Z,6.54
2019-01-13T21:31:17.806Z,6.55
2019-01-13T21:33:44.621Z,6.52
2019-01-13T21:36:13.030Z,6.48
2019-01-13T21:38:38.983Z,6.47
2019-01-13T21:41:05.180Z,6.44
2019-01-13T21:43:31.146Z,6.43
2019-01-13T21:45:57.103Z,6.47
2019-01-13T21:48:23.140Z,6.47
2019-01-13T21:50:49.732Z,6.48
2019-01-13T21:53:16.645Z,6.49
2019-01-13T21:55:42.627Z,6.67
2019-01-13T21:58:08.642Z,6.68
2019-01-13T22:00:34.806Z,6.66
2019-01-13T22:03:01.519Z,6.62
2019-01-13T22:05:27.581Z,6.58
2019-01-13T22:07:53.525Z,6.55
2019-01-13T22:10:21.487Z,6.51
2019-01-13T22:12:47.902Z,6.52
2019-01-13T22:15:15.462Z,6.50
2019-01-13T22:17:41.627Z,6.48
2019-01-13T22:20:10.683Z,6.48
2019-01-13T22:22:36.827Z,6.44
2019-01-13T22:25:05.035Z,6.43
2019-01-13T22:27:31.176Z,6.42
2019-01-13T22:29:57.189Z,6.45
2019-01-13T22:32:23.192Z,6.41
2019-01-13T22:34:49.338Z,6.40
2019-01-13T22:37:15.451Z,6.39
2019-01-13T22:39:41.457Z,6.45
2019-01-13T22:42:07.409Z,6.44
2019-01-13T22:44:33.350Z,6.41
2019-01-13T22:46:59.324Z,6.38
2019-01-13T22:49:25.275Z,6.30
2019-01-13T22:51:51.227Z,6.24
2019-01-13T22:54:17.361Z,6.21
2019-01-13T22:56:43.312Z,6.21
2019-01-13T22:59:09.341Z,6.14
2019-01-13T23:01:36.924Z,6.14
2019-01-13T23:04:03.177Z,6.16
2019-01-13T23:06:29.429Z,6.13
2019-01-13T23:08:55.439Z,6.13
2019-01-13T23:11:21.390Z,6.14
2019-01-13T23:13:47.340Z,6.18
2019-01-13T23:16:13.956Z,6.17
2019-01-13T23:18:39.961Z,6.14
2019-01-13T23:21:06.503Z,6.10
2019-01-13T23:23:32.497Z,6.10
2019-01-13T23:25:58.632Z,6.09
2019-01-13T23:28:25.053Z,6.07
2019-01-13T23:30:51.042Z,6.07
2019-01-13T23:33:16.988Z,6.07
2019-01-13T23:35:43.349Z,6.08
2019-01-13T23:38:09.773Z,6.13
2019-01-13T23:40:38.586Z,6.17
2019-01-13T23:43:04.543Z,6.18
2019-01-13T23:45:31.403Z,6.17
2019-01-13T23:47:59.294Z,6.19
2019-01-13T23:50:25.237Z,6.21
2019-01-13T23:52:51.911Z,6.23
2019-01-13T23:55:18.705Z,6.25
2019-01-13T23:57:44.764Z,6.24
